首页
METAR-TAF:

METAR-TAF

机场 :

阿道弗·苏亚雷斯马德里-巴拉哈斯机场

马德里, 西班牙

纬度: 40-27N, 经度: 003-33W, 海拔: 609米

当前天气观测

该预报发布于21分钟前的23:00 UTC
风速1节,风向多变
温度 7°C
湿度 87%
气压 1030 hPa
能见度10公里或以上
1500米以下无云,无积雨云

METAR: LEMD 172300Z VRB01KT CAVOK 07/05 Q1030 NOSIG

时间: 00:21 (23:21 UTC)

预报

该预报发布于6小时和21分钟前的17:00 UTC
预报有效从17日的 18点(UTC)到 18日的 24点(UTC)
风速4节,风向多变
能见度10公里或以上
少量云层高于2500英尺
多云层高于5000英尺
短暂存在
从 17日的 18点(UTC)到 17日的 20点(UTC)
风速6节,风向西转西北
成为
从 17日的 20点(UTC)到 17日的 21点(UTC)
风速10节,风向北转东北
少量云层高于3500英尺

TAF: LEMD 171700Z 1718/1824 VRB04KT 9999 FEW025 BKN050 TX14/1815Z TN03/1806Z TEMPO 1718/1720 29006KT BECMG 1720/1721 02010KT FEW035

超过4000个机场的气象观测和天气预报(METAR&TAF报告)。

可查询的气象台以黄色和红色小点在地图上表示。

将鼠标移到小点上方,可查看气象台名称。

然后点击查看天气观测和预报。

如需切换地图:点击带黑十字的绿色按钮放大地图;点击带横线的绿色按钮缩小地图;或者点击绿色箭头查看邻近地区的地图。


METAR-TAF: